Time;durP1;ratioP1;P1;durP2;ratioP2;P2;SDS_P1;SDS_P2;PMS_P1;PMS_P2;Temp;Humidity;BMP_temperature;BMP_pressure;BME280_temperature;BME280_humidity;BME280_pressure;Samples;Min_cycle;Max_cycle;Signal;HPM_P1;HPM_P2
2023/08/03 00:00:59;;;;;;;3.80;2.17;;;16.70;99.90;;;;;;5014426;28;20546;-61
2023/08/03 00:03:26;;;;;;;4.53;3.10;;;16.70;99.90;;;;;;5013854;28;20552;-60
2023/08/03 00:05:54;;;;;;;2.70;1.70;;;16.70;99.90;;;;;;5014223;28;20449;-59
2023/08/03 00:08:21;;;;;;;6.20;1.77;;;16.70;99.90;;;;;;5014342;28;20444;-59
2023/08/03 00:10:48;;;;;;;2.80;2.00;;;16.70;99.90;;;;;;5014048;28;20444;-61
2023/08/03 00:13:15;;;;;;;2.37;1.90;;;16.60;99.90;;;;;;5014013;28;20472;-60
2023/08/03 00:15:41;;;;;;;4.90;1.77;;;16.60;99.90;;;;;;5013751;28;20446;-59
2023/08/03 00:18:08;;;;;;;4.47;1.57;;;16.60;99.90;;;;;;5013861;28;20852;-59
2023/08/03 00:20:35;;;;;;;5.07;1.40;;;16.50;99.90;;;;;;5014146;28;20460;-60
2023/08/03 00:23:03;;;;;;;4.17;2.00;;;16.50;99.90;;;;;;5014498;28;20462;-60
2023/08/03 00:25:31;;;;;;;6.00;2.60;;;16.50;99.90;;;;;;5014067;28;20446;-60
2023/08/03 00:27:57;;;;;;;2.53;1.50;;;16.40;99.90;;;;;;5016558;28;20445;-60
2023/08/03 00:30:24;;;;;;;9.10;1.83;;;16.40;99.90;;;;;;5018150;28;20452;-60
2023/08/03 00:32:51;;;;;;;4.33;2.30;;;16.40;99.90;;;;;;5017776;28;20458;-59
2023/08/03 00:35:18;;;;;;;10.17;1.83;;;16.40;99.90;;;;;;5017338;28;20442;-59
2023/08/03 00:37:45;;;;;;;3.70;1.70;;;16.40;99.90;;;;;;5017398;28;20485;-60
2023/08/03 00:40:13;;;;;;;2.63;1.33;;;16.40;99.90;;;;;;5017484;28;20445;-60
2023/08/03 00:42:40;;;;;;;5.10;2.00;;;16.40;99.90;;;;;;5017133;28;20464;-60
2023/08/03 00:45:10;;;;;;;3.33;1.77;;;16.40;99.90;;;;;;5017070;28;20443;-59
2023/08/03 00:47:37;;;;;;;4.20;2.20;;;16.40;99.90;;;;;;5017055;28;20437;-59
2023/08/03 00:50:04;;;;;;;3.77;1.53;;;16.30;99.90;;;;;;5016713;28;20961;-60
2023/08/03 00:52:32;;;;;;;4.87;1.60;;;16.30;99.90;;;;;;5016729;28;20975;-60
2023/08/03 00:54:59;;;;;;;3.67;1.73;;;16.20;99.90;;;;;;5017892;28;20533;-60
2023/08/03 00:57:28;;;;;;;5.10;2.00;;;16.10;99.90;;;;;;5017050;28;20474;-60
2023/08/03 00:59:54;;;;;;;5.00;1.90;;;16.10;99.90;;;;;;5016828;28;20523;-60
2023/08/03 01:02:21;;;;;;;2.77;1.73;;;16.10;99.90;;;;;;5016420;28;20477;-60
2023/08/03 01:04:49;;;;;;;5.23;1.93;;;16.10;99.90;;;;;;5016481;28;20533;-59
2023/08/03 01:07:16;;;;;;;5.23;1.60;;;16.00;99.90;;;;;;5017049;28;20434;-59
2023/08/03 01:09:42;;;;;;;3.10;1.70;;;16.10;99.90;;;;;;5016772;28;20480;-59
2023/08/03 01:12:09;;;;;;;3.70;1.90;;;16.10;99.90;;;;;;5016751;28;20462;-58
2023/08/03 01:14:37;;;;;;;4.60;2.60;;;16.10;99.90;;;;;;5016698;28;20452;-57
2023/08/03 01:17:05;;;;;;;3.00;1.90;;;16.10;99.90;;;;;;5016788;28;20480;-60
2023/08/03 01:19:31;;;;;;;5.60;1.70;;;16.10;99.90;;;;;;5016479;28;20446;-60
2023/08/03 01:22:01;;;;;;;4.43;1.93;;;16.10;99.90;;;;;;5016512;28;20484;-61
2023/08/03 01:24:29;;;;;;;3.70;1.97;;;16.10;99.90;;;;;;5016565;28;20454;-61
2023/08/03 01:26:59;;;;;;;5.70;2.30;;;16.10;99.90;;;;;;5016554;28;20434;-60
2023/08/03 01:29:26;;;;;;;6.97;2.40;;;16.10;99.90;;;;;;5016790;28;20442;-60
2023/08/03 01:31:56;;;;;;;3.03;1.83;;;16.10;99.90;;;;;;5016417;28;20998;-60
2023/08/03 01:34:23;;;;;;;4.13;1.70;;;16.10;99.90;;;;;;5016528;28;20436;-60
2023/08/03 01:36:50;;;;;;;3.70;1.10;;;16.10;99.90;;;;;;5016089;28;20487;-60
2023/08/03 01:39:17;;;;;;;3.20;1.50;;;16.10;99.90;;;;;;5015366;28;21038;-60
2023/08/03 01:41:45;;;;;;;6.60;1.53;;;16.00;99.90;;;;;;5016512;28;20468;-61
2023/08/03 01:44:25;;;;;;;2.57;1.70;;;16.00;99.90;;;;;;5016168;28;20441;-60
2023/08/03 01:46:53;;;;;;;5.93;1.93;;;16.00;99.90;;;;;;5015917;28;20896;-60
2023/08/03 01:49:21;;;;;;;5.37;2.50;;;16.10;99.90;;;;;;5015929;28;20952;-61
2023/08/03 01:51:48;;;;;;;4.17;2.30;;;16.10;99.90;;;;;;5015928;28;20473;-60
2023/08/03 01:54:15;;;;;;;5.57;1.50;;;16.10;99.90;;;;;;5016101;28;20446;-60
2023/08/03 01:56:42;;;;;;;4.10;2.00;;;16.20;99.90;;;;;;5016223;28;20469;-60
2023/08/03 01:59:11;;;;;;;3.73;1.50;;;16.20;99.90;;;;;;5016111;28;20448;-61
2023/08/03 02:01:38;;;;;;;2.83;1.40;;;16.20;99.90;;;;;;5016254;28;21002;-60
2023/08/03 02:04:05;;;;;;;3.70;1.63;;;16.30;99.90;;;;;;5015776;28;20429;-60
2023/08/03 02:06:32;;;;;;;4.43;1.60;;;16.30;99.90;;;;;;5015537;28;20884;-60
2023/08/03 02:08:58;;;;;;;4.37;1.90;;;16.30;99.90;;;;;;5015767;28;20449;-60
2023/08/03 02:11:25;;;;;;;2.63;1.43;;;16.30;99.90;;;;;;5015503;28;20454;-60
2023/08/03 02:13:52;;;;;;;3.60;1.37;;;16.30;99.90;;;;;;5015238;28;20924;-61
2023/08/03 02:16:20;;;;;;;3.23;1.50;;;16.30;99.90;;;;;;5014968;28;20438;-59
2023/08/03 02:18:47;;;;;;;3.77;1.30;;;16.30;99.90;;;;;;5015257;28;20615;-60
2023/08/03 02:21:14;;;;;;;5.03;2.23;;;16.30;99.90;;;;;;5015552;28;20498;-59
2023/08/03 02:23:41;;;;;;;2.23;1.67;;;16.30;99.90;;;;;;5015304;28;20438;-61
2023/08/03 02:26:08;;;;;;;3.10;1.30;;;16.30;99.90;;;;;;5014959;28;20440;-61
2023/08/03 02:28:35;;;;;;;3.37;1.80;;;16.30;99.90;;;;;;5015333;28;20505;-60
2023/08/03 02:31:02;;;;;;;9.57;1.87;;;16.30;99.90;;;;;;5015389;28;20477;-61
2023/08/03 02:33:30;;;;;;;4.27;1.23;;;16.40;99.90;;;;;;5015014;28;20935;-60
2023/08/03 02:35:57;;;;;;;3.20;1.30;;;16.40;99.90;;;;;;5015338;28;20449;-60
2023/08/03 02:38:24;;;;;;;3.57;1.33;;;16.40;99.90;;;;;;5015722;28;20478;-60
2023/08/03 02:40:51;;;;;;;2.60;1.20;;;16.40;99.90;;;;;;5015095;28;20484;-61
2023/08/03 02:43:18;;;;;;;5.40;1.60;;;16.40;99.90;;;;;;5015767;28;20462;-60
2023/08/03 02:45:45;;;;;;;2.37;1.30;;;16.40;99.90;;;;;;5015354;28;20437;-61
2023/08/03 02:48:11;;;;;;;2.07;0.90;;;16.50;99.90;;;;;;5014809;28;20446;-60
2023/08/03 02:50:40;;;;;;;3.77;1.40;;;16.40;99.90;;;;;;5014216;28;20445;-61
2023/08/03 02:53:06;;;;;;;3.50;1.30;;;16.50;99.90;;;;;;5014669;28;20468;-61
2023/08/03 02:55:33;;;;;;;5.13;1.50;;;16.40;99.90;;;;;;5014733;28;20453;-60
2023/08/03 02:58:00;;;;;;;2.77;1.10;;;16.50;99.90;;;;;;5014791;28;20848;-60
2023/08/03 03:00:27;;;;;;;5.90;1.87;;;16.50;99.90;;;;;;5014598;28;20529;-60
2023/08/03 03:02:53;;;;;;;2.50;1.10;;;16.50;99.90;;;;;;5014531;28;20484;-60
2023/08/03 03:05:20;;;;;;;4.07;1.20;;;16.50;99.90;;;;;;5014655;28;20448;-60
2023/08/03 03:07:48;;;;;;;1.43;1.10;;;16.50;99.90;;;;;;5020397;28;20466;-61
2023/08/03 03:10:15;;;;;;;3.27;1.47;;;16.40;99.90;;;;;;5023854;28;20537;-61
2023/08/03 03:12:42;;;;;;;3.60;1.70;;;16.40;99.90;;;;;;5021738;28;20462;-61
2023/08/03 03:15:10;;;;;;;4.70;1.13;;;16.30;99.90;;;;;;5016492;28;20453;-60
2023/08/03 03:17:38;;;;;;;3.70;1.37;;;16.20;99.90;;;;;;5015308;28;20478;-61
2023/08/03 03:20:06;;;;;;;1.73;1.13;;;16.10;99.90;;;;;;5015848;28;20450;-62
2023/08/03 03:22:32;;;;;;;4.23;1.37;;;16.10;99.90;;;;;;5014800;28;20458;-61
2023/08/03 03:25:01;;;;;;;6.03;1.33;;;16.00;99.90;;;;;;5014849;28;20446;-61
2023/08/03 03:27:27;;;;;;;2.37;1.50;;;15.90;99.90;;;;;;5014181;28;20448;-60
2023/08/03 03:29:54;;;;;;;2.63;1.50;;;15.90;99.90;;;;;;5014429;28;20438;-62
2023/08/03 03:32:21;;;;;;;2.87;1.40;;;15.80;99.90;;;;;;5014560;28;20472;-61
2023/08/03 03:34:48;;;;;;;3.23;1.57;;;15.80;99.90;;;;;;5013878;28;20476;-61
2023/08/03 03:37:15;;;;;;;3.30;1.47;;;15.80;99.90;;;;;;5014040;28;20448;-61
2023/08/03 03:39:42;;;;;;;3.70;1.47;;;15.70;99.90;;;;;;5013635;28;20449;-61
2023/08/03 03:42:10;;;;;;;7.57;1.70;;;15.70;99.90;;;;;;5013772;28;20469;-61
2023/08/03 03:44:37;;;;;;;4.53;1.30;;;15.70;99.90;;;;;;5014045;28;20446;-61
2023/08/03 03:47:04;;;;;;;2.80;1.40;;;15.70;99.90;;;;;;5014201;28;20545;-60
2023/08/03 03:49:31;;;;;;;1.93;1.00;;;15.60;99.90;;;;;;5013825;28;20449;-61
2023/08/03 03:51:58;;;;;;;2.27;1.40;;;15.60;99.90;;;;;;5014317;28;20473;-61
2023/08/03 03:54:24;;;;;;;1.90;1.10;;;15.60;99.90;;;;;;5014763;28;20442;-61
2023/08/03 03:56:51;;;;;;;2.27;1.10;;;15.60;99.90;;;;;;5014841;28;20444;-61
2023/08/03 03:59:19;;;;;;;1.63;1.20;;;15.60;99.90;;;;;;5014822;28;20484;-61
2023/08/03 04:01:46;;;;;;;6.30;1.27;;;15.60;99.90;;;;;;5013805;28;20481;-60
2023/08/03 04:04:13;;;;;;;2.03;1.00;;;15.60;99.90;;;;;;5014801;28;20442;-60
2023/08/03 04:06:40;;;;;;;1.13;1.03;;;15.60;99.90;;;;;;5015084;28;20468;-60
2023/08/03 04:12:02;;;;;;;1.30;1.20;;;15.70;99.90;;;;;;5093199;27;20589;-61
2023/08/03 04:14:29;;;;;;;1.97;1.27;;;15.60;99.90;;;;;;5092502;28;20820;-61
2023/08/03 04:16:55;;;;;;;1.87;1.03;;;15.70;99.90;;;;;;5091686;28;20959;-61
2023/08/03 04:19:22;;;;;;;2.73;1.80;;;15.70;99.90;;;;;;5090381;28;20931;-60
2023/08/03 04:21:49;;;;;;;1.90;1.50;;;15.70;99.90;;;;;;5090286;28;20972;-61
2023/08/03 04:24:16;;;;;;;4.27;1.43;;;15.80;99.90;;;;;;5090891;28;20785;-60
2023/08/03 04:26:42;;;;;;;2.30;1.50;;;15.80;99.90;;;;;;5091284;28;20947;-61
2023/08/03 04:29:10;;;;;;;1.83;1.40;;;15.80;99.90;;;;;;5090390;28;20438;-59
2023/08/03 04:31:37;;;;;;;1.67;1.17;;;15.90;99.90;;;;;;5090102;28;21003;-59
2023/08/03 04:34:04;;;;;;;1.70;1.10;;;15.90;99.90;;;;;;5090349;28;20947;-59
2023/08/03 04:36:31;;;;;;;3.07;1.20;;;15.90;99.90;;;;;;5090557;28;20442;-61
2023/08/03 04:38:57;;;;;;;1.20;1.00;;;15.90;99.90;;;;;;5090954;28;20465;-60
2023/08/03 04:41:24;;;;;;;1.40;1.17;;;15.90;99.90;;;;;;5090322;28;20476;-59
2023/08/03 04:43:51;;;;;;;2.00;1.20;;;15.90;99.90;;;;;;5090025;28;20473;-60
2023/08/03 04:46:19;;;;;;;2.30;1.47;;;15.80;99.90;;;;;;5090117;28;20781;-59
2023/08/03 04:48:46;;;;;;;1.80;1.70;;;15.80;99.90;;;;;;5090198;28;20443;-59
2023/08/03 04:51:12;;;;;;;2.77;1.70;;;15.80;99.90;;;;;;5089976;28;20478;-60
2023/08/03 04:53:39;;;;;;;5.90;1.50;;;15.70;99.90;;;;;;5090186;28;20441;-60
2023/08/03 04:56:06;;;;;;;1.83;1.30;;;15.70;99.90;;;;;;5090171;28;20446;-60
2023/08/03 04:58:33;;;;;;;5.73;1.97;;;15.70;99.90;;;;;;5090820;28;20441;-60
2023/08/03 05:00:59;;;;;;;2.70;1.60;;;15.70;99.90;;;;;;5089478;28;20519;-61
2023/08/03 05:03:28;;;;;;;3.00;1.93;;;15.70;99.90;;;;;;5089858;28;20455;-61
2023/08/03 05:05:54;;;;;;;2.23;2.03;;;15.70;99.90;;;;;;5090293;28;20571;-59
2023/08/03 05:08:22;;;;;;;2.00;1.83;;;15.70;99.90;;;;;;5090108;28;20442;-61
2023/08/03 05:10:49;;;;;;;3.93;1.67;;;15.70;99.90;;;;;;5089817;28;20569;-61
2023/08/03 05:13:17;;;;;;;2.30;2.10;;;15.70;99.90;;;;;;5089560;28;20466;-60
2023/08/03 05:15:44;;;;;;;5.83;1.93;;;15.70;99.90;;;;;;5090024;28;20539;-61
2023/08/03 05:18:10;;;;;;;2.10;1.87;;;15.70;99.90;;;;;;5088799;28;20473;-60
2023/08/03 05:20:38;;;;;;;2.83;2.40;;;15.70;99.90;;;;;;5089452;28;20503;-59
2023/08/03 05:23:09;;;;;;;2.03;1.67;;;15.80;99.90;;;;;;5077694;28;20455;-60
2023/08/03 05:25:35;;;;;;;2.30;1.80;;;15.80;99.90;;;;;;5076246;28;20510;-60
2023/08/03 05:28:02;;;;;;;2.80;2.10;;;15.80;99.90;;;;;;5076082;28;20448;-59
2023/08/03 05:30:29;;;;;;;2.40;1.60;;;15.90;99.90;;;;;;5075895;28;20471;-60
2023/08/03 05:32:56;;;;;;;3.87;2.10;;;15.90;99.90;;;;;;5075990;28;20550;-60
2023/08/03 05:35:23;;;;;;;3.87;1.80;;;15.90;99.90;;;;;;5075881;28;20435;-60
2023/08/03 05:37:53;;;;;;;5.50;1.70;;;15.90;99.90;;;;;;5075706;28;20442;-61
2023/08/03 05:40:21;;;;;;;2.83;1.50;;;15.90;99.90;;;;;;5075830;28;20428;-60
2023/08/03 05:42:47;;;;;;;3.50;2.30;;;16.00;99.90;;;;;;5075117;28;20459;-60
2023/08/03 05:45:33;;;;;;;3.30;2.93;;;16.00;99.90;;;;;;5075655;28;20521;-60
2023/08/03 05:48:00;;;;;;;1.67;1.57;;;16.00;99.90;;;;;;5075840;28;20859;-60
2023/08/03 05:50:28;;;;;;;1.93;1.73;;;16.00;99.90;;;;;;5075547;28;20486;-61
2023/08/03 05:52:57;;;;;;;2.70;1.90;;;15.90;99.90;;;;;;5076071;28;20656;-61
2023/08/03 05:55:24;;;;;;;3.37;2.20;;;16.00;99.90;;;;;;5075669;28;20439;-58
2023/08/03 05:57:51;;;;;;;2.97;2.37;;;15.90;99.90;;;;;;5075515;28;20453;-60
2023/08/03 06:00:21;;;;;;;4.07;2.10;;;15.90;99.90;;;;;;5075952;28;20446;-60
2023/08/03 06:02:49;;;;;;;2.57;2.20;;;16.00;99.90;;;;;;5075215;28;20455;-60
2023/08/03 06:05:41;;;;;;;4.67;2.37;;;15.90;99.90;;;;;;5075562;28;20439;-60
2023/08/03 06:08:13;;;;;;;4.07;2.73;;;15.90;99.90;;;;;;5075282;28;20767;-62
2023/08/03 06:10:40;;;;;;;3.10;2.43;;;15.90;99.90;;;;;;5074961;28;20478;-61
2023/08/03 06:13:11;;;;;;;2.57;2.33;;;15.90;99.90;;;;;;5075019;28;20984;-61
2023/08/03 06:15:38;;;;;;;5.70;2.40;;;15.90;99.90;;;;;;5075238;28;20431;-60
2023/08/03 06:18:07;;;;;;;4.37;2.87;;;15.90;99.90;;;;;;5074508;28;20817;-60
2023/08/03 06:20:35;;;;;;;2.47;2.20;;;15.90;99.90;;;;;;5074943;28;20467;-59
2023/08/03 06:23:04;;;;;;;3.10;2.43;;;15.90;99.90;;;;;;5075209;28;20451;-60
2023/08/03 06:25:32;;;;;;;3.70;2.87;;;15.90;99.90;;;;;;5074895;28;20439;-61
2023/08/03 06:28:02;;;;;;;2.50;2.20;;;15.90;99.90;;;;;;5074517;28;20915;-61
2023/08/03 06:30:29;;;;;;;4.70;2.20;;;16.00;99.90;;;;;;5074860;28;20431;-60
2023/08/03 06:32:55;;;;;;;2.70;2.50;;;16.00;99.90;;;;;;5073948;28;20558;-62
2023/08/03 06:35:37;;;;;;;5.27;2.50;;;16.00;99.90;;;;;;5074298;28;20944;-60
2023/08/03 06:38:05;;;;;;;3.30;2.20;;;16.00;99.90;;;;;;5074301;28;20457;-60
2023/08/03 06:40:33;;;;;;;2.00;1.90;;;16.10;99.90;;;;;;5074937;28;20447;-61
2023/08/03 06:43:01;;;;;;;3.17;1.70;;;16.10;99.90;;;;;;5074685;28;20546;-60
2023/08/03 06:45:29;;;;;;;1.57;1.47;;;16.20;99.90;;;;;;5074110;28;20970;-61
2023/08/03 06:47:56;;;;;;;3.20;1.80;;;16.40;99.90;;;;;;5074664;28;20450;-60
2023/08/03 06:50:23;;;;;;;3.10;2.20;;;16.50;99.90;;;;;;5074752;28;20479;-60
2023/08/03 06:52:51;;;;;;;2.80;1.73;;;16.70;99.90;;;;;;5074326;28;20819;-60
2023/08/03 06:55:18;;;;;;;3.47;1.23;;;16.70;99.90;;;;;;5074417;28;20448;-60
2023/08/03 06:57:46;;;;;;;2.37;1.60;;;16.80;99.90;;;;;;5074583;28;20811;-60
2023/08/03 07:00:14;;;;;;;3.87;1.70;;;16.90;99.90;;;;;;5074310;28;20474;-60
2023/08/03 07:02:41;;;;;;;2.00;1.77;;;17.10;99.90;;;;;;5074758;28;20455;-61
2023/08/03 07:05:08;;;;;;;2.70;1.70;;;17.30;99.90;;;;;;5073874;28;20963;-60
2023/08/03 07:07:35;;;;;;;1.73;1.57;;;17.50;99.90;;;;;;5074726;28;20444;-61
2023/08/03 07:10:01;;;;;;;2.50;1.60;;;17.70;99.90;;;;;;5073816;28;20466;-59
2023/08/03 07:12:28;;;;;;;1.57;1.30;;;18.00;99.90;;;;;;5074189;28;20483;-60
2023/08/03 07:14:57;;;;;;;3.93;1.13;;;18.30;99.90;;;;;;5073808;28;20435;-59
2023/08/03 07:17:24;;;;;;;2.40;1.17;;;18.60;99.90;;;;;;5075396;28;20443;-60
2023/08/03 07:19:51;;;;;;;1.60;1.23;;;18.80;99.90;;;;;;5075412;28;20522;-61
2023/08/03 07:22:18;;;;;;;1.63;1.17;;;18.80;99.90;;;;;;5073978;28;20456;-59
2023/08/03 07:24:45;;;;;;;2.30;1.43;;;18.70;99.90;;;;;;5073673;28;20439;-61
2023/08/03 07:27:12;;;;;;;1.97;1.03;;;18.60;99.90;;;;;;5073984;28;20467;-59
2023/08/03 07:29:38;;;;;;;3.97;1.40;;;18.50;99.90;;;;;;5074750;28;20435;-59
2023/08/03 07:32:07;;;;;;;2.33;1.30;;;18.40;99.90;;;;;;5074300;28;20855;-62
2023/08/03 07:34:34;;;;;;;4.27;1.50;;;18.30;99.90;;;;;;5073975;28;20821;-59
2023/08/03 07:37:01;;;;;;;2.30;1.33;;;18.30;99.90;;;;;;5074025;28;20443;-59
2023/08/03 07:39:28;;;;;;;2.23;1.17;;;18.30;99.90;;;;;;5073418;28;20447;-60
2023/08/03 07:41:55;;;;;;;2.13;1.07;;;18.40;99.90;;;;;;5073221;28;20980;-61
2023/08/03 07:44:22;;;;;;;2.73;1.27;;;18.50;99.90;;;;;;5074068;28;20448;-61
2023/08/03 07:46:49;;;;;;;1.63;1.20;;;18.50;99.90;;;;;;5073861;28;20483;-60
2023/08/03 07:49:17;;;;;;;2.47;1.63;;;18.50;99.90;;;;;;5074288;28;20512;-60
2023/08/03 07:51:45;;;;;;;1.90;1.40;;;18.60;99.90;;;;;;5074267;28;20540;-60
2023/08/03 07:54:12;;;;;;;2.43;1.30;;;18.70;99.90;;;;;;5073732;28;20446;-60
2023/08/03 07:56:38;;;;;;;1.10;1.00;;;18.90;99.90;;;;;;5073674;28;20439;-60
2023/08/03 07:59:05;;;;;;;1.47;1.30;;;19.00;99.90;;;;;;5074394;28;20446;-60
2023/08/03 08:01:32;;;;;;;3.33;1.60;;;19.00;99.90;;;;;;5073625;28;20826;-60
2023/08/03 08:03:59;;;;;;;2.90;1.27;;;18.60;99.90;;;;;;5074442;28;20441;-62
2023/08/03 08:06:27;;;;;;;2.10;1.50;;;18.20;99.90;;;;;;5073764;28;20439;-61
2023/08/03 08:08:54;;;;;;;2.30;1.57;;;17.80;99.90;;;;;;5073837;28;20443;-59
2023/08/03 08:11:21;;;;;;;3.03;1.70;;;17.50;99.90;;;;;;5073094;28;21029;-61
2023/08/03 08:13:48;;;;;;;2.43;1.63;;;17.30;99.90;;;;;;5073156;28;20435;-61
2023/08/03 08:16:16;;;;;;;3.70;1.50;;;17.30;99.90;;;;;;5074162;28;20546;-61
2023/08/03 08:18:43;;;;;;;3.73;2.00;;;17.30;99.90;;;;;;5073496;28;20522;-60
2023/08/03 08:21:11;;;;;;;3.07;1.90;;;17.30;99.90;;;;;;5074559;28;20436;-62
2023/08/03 08:23:40;;;;;;;3.67;1.50;;;17.30;99.90;;;;;;5074306;28;20443;-61
2023/08/03 08:26:11;;;;;;;2.70;1.27;;;17.30;99.90;;;;;;5074680;28;20534;-61
2023/08/03 08:28:38;;;;;;;2.37;1.37;;;17.40;99.90;;;;;;5074092;28;20451;-61
2023/08/03 08:31:04;;;;;;;1.47;1.10;;;17.60;99.90;;;;;;5074724;28;20439;-60
2023/08/03 08:33:31;;;;;;;2.40;1.37;;;17.80;99.90;;;;;;5073998;28;20446;-60
2023/08/03 08:35:58;;;;;;;2.53;1.40;;;18.10;99.90;;;;;;5074462;28;20443;-62
2023/08/03 08:38:25;;;;;;;1.30;1.20;;;18.50;99.90;;;;;;5075610;28;20442;-61
2023/08/03 08:40:54;;;;;;;2.20;2.00;;;18.90;99.90;;;;;;5074884;28;20526;-62
2023/08/03 08:43:21;;;;;;;1.50;1.27;;;19.30;99.90;;;;;;5074606;28;20452;-62
2023/08/03 08:45:48;;;;;;;2.03;1.20;;;19.50;99.90;;;;;;5074360;28;20969;-61
2023/08/03 08:48:15;;;;;;;2.73;1.10;;;19.60;99.90;;;;;;5075241;28;20947;-61
2023/08/03 08:50:42;;;;;;;1.67;1.30;;;19.50;99.90;;;;;;5075148;28;20439;-60
2023/08/03 08:53:09;;;;;;;1.70;1.23;;;19.40;99.90;;;;;;5074539;28;20483;-61
2023/08/03 08:55:36;;;;;;;2.77;1.00;;;19.20;99.90;;;;;;5074640;28;20451;-59
2023/08/03 08:58:04;;;;;;;1.43;0.87;;;19.20;99.90;;;;;;5077401;28;20439;-64
2023/08/03 09:00:40;;;;;;;1.00;0.97;;;19.30;99.90;;;;;;5078443;28;20439;-61
2023/08/03 09:03:07;;;;;;;1.70;1.10;;;19.40;99.90;;;;;;5078418;28;20454;-61
2023/08/03 09:05:36;;;;;;;0.83;0.83;;;19.30;99.90;;;;;;5079609;28;20443;-62
2023/08/03 09:08:05;;;;;;;1.47;0.90;;;19.20;99.90;;;;;;5078713;28;21032;-61
2023/08/03 09:10:32;;;;;;;1.00;0.80;;;19.00;99.90;;;;;;5078550;28;20477;-61
2023/08/03 09:12:59;;;;;;;1.57;0.87;;;18.90;99.90;;;;;;5077946;28;20486;-61
2023/08/03 09:15:41;;;;;;;3.20;1.00;;;18.90;99.90;;;;;;5077714;28;20442;-60
2023/08/03 09:18:08;;;;;;;1.50;1.00;;;18.90;99.90;;;;;;5077883;28;20441;-60
2023/08/03 09:20:35;;;;;;;1.03;0.93;;;19.00;99.90;;;;;;5078045;28;20443;-60
2023/08/03 09:23:03;;;;;;;1.10;0.80;;;19.00;99.90;;;;;;5077759;28;20594;-61
2023/08/03 09:25:31;;;;;;;1.30;1.00;;;19.00;99.90;;;;;;5077140;28;20457;-61
2023/08/03 09:27:57;;;;;;;2.23;0.93;;;18.90;99.90;;;;;;5077527;28;20450;-62
2023/08/03 09:30:25;;;;;;;2.50;1.30;;;18.70;99.90;;;;;;5077526;28;20439;-62
2023/08/03 09:32:54;;;;;;;4.03;1.60;;;18.50;99.90;;;;;;5076878;28;20475;-61
2023/08/03 09:35:22;;;;;;;1.10;1.00;;;18.30;99.90;;;;;;5076542;28;21043;-61
2023/08/03 09:37:51;;;;;;;0.93;0.87;;;18.10;99.90;;;;;;5077263;28;20530;-61
2023/08/03 09:40:19;;;;;;;1.60;1.40;;;17.90;99.90;;;;;;5076960;28;20986;-60
2023/08/03 09:42:48;;;;;;;3.80;1.20;;;17.90;99.90;;;;;;5076858;28;20481;-60
2023/08/03 09:45:15;;;;;;;2.03;1.33;;;17.80;99.90;;;;;;5077117;28;20619;-63
2023/08/03 09:47:42;;;;;;;1.70;1.10;;;17.60;99.90;;;;;;5076974;28;20586;-61
2023/08/03 09:50:11;;;;;;;1.20;1.10;;;17.50;99.90;;;;;;5076277;28;20438;-62
2023/08/03 09:52:44;;;;;;;1.30;1.20;;;17.40;99.90;;;;;;5076719;28;20487;-62
2023/08/03 09:55:18;;;;;;;1.40;1.00;;;17.60;99.90;;;;;;5076123;28;20529;-62
2023/08/03 09:57:50;;;;;;;2.60;1.23;;;17.80;99.90;;;;;;5076247;28;20481;-60
2023/08/03 10:00:18;;;;;;;1.00;0.90;;;18.10;99.90;;;;;;5076263;28;20434;-60
2023/08/03 10:02:52;;;;;;;1.30;1.20;;;18.50;99.90;;;;;;5075663;28;20473;-60
2023/08/03 10:05:22;;;;;;;2.13;1.93;;;18.70;99.90;;;;;;5076281;28;20538;-61
2023/08/03 10:07:58;;;;;;;3.03;1.30;;;18.80;99.90;;;;;;5077030;28;20430;-59
2023/08/03 10:10:28;;;;;;;1.40;1.30;;;18.90;99.90;;;;;;5075104;28;20458;-60
2023/08/03 10:12:58;;;;;;;1.40;0.97;;;18.90;99.90;;;;;;5075526;28;20532;-58
2023/08/03 10:15:26;;;;;;;1.00;0.90;;;19.00;99.90;;;;;;5075744;28;20504;-61
2023/08/03 10:17:53;;;;;;;1.17;0.90;;;19.20;99.90;;;;;;5075618;28;20439;-60
2023/08/03 10:20:23;;;;;;;1.30;1.00;;;19.20;99.90;;;;;;5075794;28;20443;-61
2023/08/03 10:23:10;;;;;;;1.87;1.10;;;19.40;99.90;;;;;;5075694;28;20460;-60
2023/08/03 10:25:52;;;;;;;1.23;0.90;;;19.70;99.90;;;;;;5075774;28;20443;-60
2023/08/03 10:28:19;;;;;;;1.10;0.90;;;20.00;99.90;;;;;;5076314;28;20451;-62
2023/08/03 10:31:11;;;;;;;1.37;1.27;;;20.30;99.90;;;;;;5075176;28;20895;-59
2023/08/03 10:34:15;;;;;;;1.73;1.30;;;20.40;99.90;;;;;;5075154;28;20464;-60
2023/08/03 10:36:48;;;;;;;1.03;0.93;;;20.50;99.90;;;;;;5075325;28;20470;-60
2023/08/03 10:39:18;;;;;;;1.70;1.60;;;20.60;99.90;;;;;;5075077;28;20436;-61
2023/08/03 10:41:46;;;;;;;1.67;1.57;;;20.80;99.90;;;;;;5075456;28;20477;-60
2023/08/03 10:44:28;;;;;;;1.20;1.10;;;21.20;99.90;;;;;;5075182;28;20533;-58
2023/08/03 10:46:59;;;;;;;1.30;1.00;;;21.50;99.90;;;;;;5074938;28;20497;-60
2023/08/03 10:49:49;;;;;;;1.20;1.10;;;21.50;99.90;;;;;;5074899;28;20437;-60
2023/08/03 10:52:19;;;;;;;1.70;1.03;;;21.40;99.90;;;;;;5074647;28;20494;-61
2023/08/03 10:54:47;;;;;;;1.43;1.30;;;21.20;99.90;;;;;;5074385;28;20454;-60
2023/08/03 10:57:15;;;;;;;1.77;1.23;;;20.90;99.90;;;;;;5074345;28;20441;-60
2023/08/03 10:59:43;;;;;;;1.13;1.03;;;20.60;99.90;;;;;;5075123;28;20449;-60
2023/08/03 11:02:13;;;;;;;1.17;1.07;;;20.20;99.90;;;;;;5075208;28;20485;-60
2023/08/03 11:04:40;;;;;;;1.37;1.13;;;19.70;99.90;;;;;;5075212;28;20444;-60
2023/08/03 11:07:08;;;;;;;1.23;1.00;;;19.30;99.90;;;;;;5075142;28;20439;-61
2023/08/03 11:09:36;;;;;;;1.30;1.20;;;19.10;99.90;;;;;;5074491;28;20889;-60
2023/08/03 11:12:04;;;;;;;1.83;1.60;;;19.10;99.90;;;;;;5075689;28;20463;-61
2023/08/03 11:14:31;;;;;;;1.70;1.13;;;19.10;99.90;;;;;;5074783;28;20509;-62
2023/08/03 11:16:58;;;;;;;0.80;0.80;;;18.90;99.90;;;;;;5074027;28;20510;-60
2023/08/03 11:19:31;;;;;;;2.70;1.10;;;18.90;99.90;;;;;;5074250;28;20439;-62
2023/08/03 11:21:59;;;;;;;2.53;1.50;;;19.00;99.90;;;;;;5075004;28;20467;-61
2023/08/03 11:24:28;;;;;;;2.70;1.20;;;19.10;99.90;;;;;;5075608;28;20444;-60
2023/08/03 11:26:56;;;;;;;0.97;0.87;;;19.20;99.90;;;;;;5075301;28;20447;-59
2023/08/03 11:29:24;;;;;;;1.47;1.37;;;19.40;99.90;;;;;;5074860;28;20450;-60
2023/08/03 11:31:50;;;;;;;1.90;1.50;;;19.50;99.90;;;;;;5074796;28;20473;-61
2023/08/03 11:34:18;;;;;;;1.60;1.50;;;19.60;99.90;;;;;;5075090;28;20440;-61
2023/08/03 11:36:48;;;;;;;2.00;1.90;;;19.60;99.90;;;;;;5075059;28;20493;-60
2023/08/03 11:39:15;;;;;;;2.40;2.20;;;19.50;99.90;;;;;;5074914;28;20451;-62
2023/08/03 11:41:43;;;;;;;2.70;2.50;;;19.30;99.90;;;;;;5075021;28;20825;-61
2023/08/03 11:44:11;;;;;;;3.13;2.30;;;19.00;99.90;;;;;;5074930;28;20946;-62
2023/08/03 11:46:38;;;;;;;2.40;2.30;;;18.80;99.90;;;;;;5074403;28;20438;-62
2023/08/03 11:49:05;;;;;;;3.20;2.90;;;18.70;99.90;;;;;;5074236;28;20438;-64
2023/08/03 11:51:33;;;;;;;2.83;2.63;;;18.60;99.90;;;;;;5074239;28;20801;-62
2023/08/03 11:54:04;;;;;;;3.03;2.67;;;18.50;99.90;;;;;;5074339;28;20481;-62
2023/08/03 11:56:30;;;;;;;4.63;3.03;;;18.40;99.90;;;;;;5073950;28;20454;-62
2023/08/03 11:58:57;;;;;;;5.23;2.50;;;18.30;99.90;;;;;;5074264;28;20550;-62
2023/08/03 12:01:26;;;;;;;3.07;2.87;;;18.10;99.90;;;;;;5074919;28;20893;-63
2023/08/03 12:04:09;;;;;;;3.60;3.30;;;18.00;99.90;;;;;;5074863;28;20817;-61
2023/08/03 12:06:47;;;;;;;3.10;2.80;;;17.90;99.90;;;;;;5075239;28;20442;-61
2023/08/03 12:09:21;;;;;;;4.93;3.03;;;17.80;99.90;;;;;;5074963;28;20904;-63
2023/08/03 12:11:48;;;;;;;4.00;3.60;;;17.70;99.90;;;;;;5075399;28;20471;-61
2023/08/03 12:14:16;;;;;;;5.30;3.60;;;17.60;99.90;;;;;;5075576;28;20481;-60
2023/08/03 12:16:44;;;;;;;3.83;3.43;;;17.50;99.90;;;;;;5075307;28;20443;-61
2023/08/03 12:19:11;;;;;;;4.40;3.80;;;17.50;99.90;;;;;;5075488;28;20469;-61
2023/08/03 12:21:38;;;;;;;3.53;3.13;;;17.40;99.90;;;;;;5074999;28;20549;-61
2023/08/03 12:24:07;;;;;;;4.00;3.70;;;17.30;99.90;;;;;;5075282;28;20438;-61
2023/08/03 12:26:34;;;;;;;4.00;3.50;;;17.30;99.90;;;;;;5074480;28;20439;-61
2023/08/03 12:29:03;;;;;;;5.10;3.97;;;17.30;99.90;;;;;;5074906;28;20482;-62
2023/08/03 12:31:31;;;;;;;6.00;4.00;;;17.20;99.90;;;;;;5074987;28;20467;-61
2023/08/03 12:33:59;;;;;;;4.83;4.33;;;17.30;99.90;;;;;;5078791;28;20478;-62
2023/08/03 12:36:27;;;;;;;4.60;4.20;;;17.30;99.90;;;;;;5078141;28;20469;-60
2023/08/03 12:38:54;;;;;;;4.70;4.30;;;17.60;99.90;;;;;;5078252;28;20454;-62
2023/08/03 12:41:22;;;;;;;4.43;4.03;;;17.70;99.90;;;;;;5078823;28;20446;-60
2023/08/03 12:43:49;;;;;;;4.20;3.80;;;17.90;99.90;;;;;;5078288;28;20436;-61
2023/08/03 12:46:16;;;;;;;2.80;2.60;;;18.30;99.90;;;;;;5079262;28;20439;-62
2023/08/03 12:48:43;;;;;;;2.33;2.13;;;18.60;99.90;;;;;;5077712;28;20530;-61
2023/08/03 12:51:11;;;;;;;2.57;2.33;;;18.90;99.90;;;;;;5078503;28;20447;-62
2023/08/03 12:53:38;;;;;;;2.40;2.10;;;19.20;99.90;;;;;;5078659;28;20471;-60
2023/08/03 12:56:05;;;;;;;1.87;1.77;;;19.40;99.90;;;;;;5078601;28;20534;-62